Time;durP1;ratioP1;P1;durP2;ratioP2;P2;SDS_P1;SDS_P2;PMS_P1;PMS_P2;Temp;Humidity;BMP_temperature;BMP_pressure;BME280_temperature;BME280_humidity;BME280_pressure;Samples;Min_cycle;Max_cycle;Signal;HPM_P1;HPM_P2
2022/07/15 00:00:22;;;;;;;5.63;2.65;;;;;;;18.95;100.00;96026.03;1030690;28;20034;-71
2022/07/15 00:00:55;;;;;;;6.10;2.60;;;;;;;18.95;100.00;96018.84;1022994;29;20040;-69
2022/07/15 00:01:28;;;;;;;4.40;2.58;;;;;;;19.01;100.00;96033.56;1022291;29;20026;-72
2022/07/15 00:01:58;;;;;;;5.18;2.70;;;;;;;19.00;100.00;96031.97;1024372;28;20421;-72
2022/07/15 00:02:29;;;;;;;4.03;2.80;;;;;;;19.00;100.00;96031.97;1027200;28;20027;-74
2022/07/15 00:02:59;;;;;;;3.80;2.63;;;;;;;18.97;100.00;96026.50;1026937;28;20486;-73
2022/07/15 00:03:31;;;;;;;4.40;2.45;;;;;;;18.97;100.00;96032.59;1022786;28;20134;-73
2022/07/15 00:04:02;;;;;;;5.93;2.75;;;;;;;18.88;100.00;96017.72;1026803;28;20031;-71
2022/07/15 00:04:32;;;;;;;5.43;2.67;;;;;;;18.90;100.00;96012.88;1022902;28;20155;-73
2022/07/15 00:05:05;;;;;;;3.45;2.63;;;;;;;18.98;100.00;96033.38;1019228;28;20837;-76
2022/07/15 00:05:35;;;;;;;4.65;2.50;;;;;;;18.99;100.00;96029.66;1026331;28;20026;-73
2022/07/15 00:06:06;;;;;;;3.03;2.17;;;;;;;18.91;100.00;96023.19;1027022;28;20035;-71
2022/07/15 00:06:36;;;;;;;14.25;2.85;;;;;;;19.00;100.00;96033.88;1031455;28;20026;-72
2022/07/15 00:07:07;;;;;;;5.57;2.15;;;;;;;18.99;100.00;96041.06;1036722;28;20040;-72
2022/07/15 00:07:37;;;;;;;4.03;2.47;;;;;;;18.97;100.00;96027.28;1038031;28;20141;-72
2022/07/15 00:08:07;;;;;;;4.80;2.70;;;;;;;18.97;100.00;96029.94;1030593;28;20103;-72
2022/07/15 00:08:38;;;;;;;3.42;2.10;;;;;;;18.95;100.00;96024.16;1030625;28;20058;-73
2022/07/15 00:09:08;;;;;;;4.22;2.53;;;;;;;19.00;100.00;96031.97;1028570;28;20042;-73
2022/07/15 00:10:28;;;;;;;4.03;2.75;;;;;;;18.93;100.00;96031.66;1030832;28;20026;-72
2022/07/15 00:10:59;;;;;;;3.45;2.58;;;;;;;18.99;100.00;96035.75;1029050;28;20718;-71
2022/07/15 00:11:29;;;;;;;5.70;2.55;;;;;;;18.93;100.00;96039.63;1031040;28;20034;-73
2022/07/15 00:12:00;;;;;;;5.55;2.78;;;;;;;18.94;100.00;96037.75;1026601;28;20038;-72
2022/07/15 00:12:30;;;;;;;3.88;2.35;;;;;;;18.95;100.00;96039.34;1022621;28;20811;-74
2022/07/15 00:13:01;;;;;;;8.82;2.63;;;;;;;18.93;100.00;96039.63;1025268;28;20054;-71
2022/07/15 00:13:31;;;;;;;6.53;3.20;;;;;;;18.94;100.00;96038.53;1026696;28;20139;-71
2022/07/15 00:14:02;;;;;;;3.70;2.45;;;;;;;18.90;100.00;96034.94;1026650;28;20533;-73
2022/07/15 00:14:32;;;;;;;11.25;3.08;;;;;;;18.91;100.00;96039.13;1026759;28;20173;-72
2022/07/15 00:15:03;;;;;;;7.15;2.10;;;;;;;18.81;100.00;96026.13;1030604;28;20085;-72
2022/07/15 00:15:34;;;;;;;5.88;2.42;;;;;;;18.86;100.00;96036.63;1030604;28;20045;-73
2022/07/15 00:16:04;;;;;;;7.55;2.85;;;;;;;18.86;100.00;96035.84;1034649;28;20489;-71
2022/07/15 00:16:35;;;;;;;8.23;2.50;;;;;;;18.83;100.00;96038.03;1034361;28;20489;-72
2022/07/15 00:17:06;;;;;;;6.05;2.95;;;;;;;18.83;100.00;96037.25;1034853;28;20088;-71
2022/07/15 00:17:36;;;;;;;6.25;2.47;;;;;;;18.75;100.00;96028.16;1030489;28;20026;-72
2022/07/15 00:18:07;;;;;;;5.78;2.28;;;;;;;18.84;100.00;96033.50;1026365;28;20026;-72
2022/07/15 00:18:37;;;;;;;7.40;2.40;;;;;;;18.80;100.00;96030.66;1026503;28;20031;-72
2022/07/15 00:19:07;;;;;;;6.55;2.45;;;;;;;18.80;100.00;96030.66;1022648;28;20082;-71
2022/07/15 00:19:38;;;;;;;4.18;2.60;;;;;;;18.76;100.00;96031.59;1026390;28;20106;-73
2022/07/15 00:20:10;;;;;;;9.88;2.90;;;;;;;18.74;100.00;96031.88;1025901;28;20030;-73
2022/07/15 00:20:40;;;;;;;3.03;2.25;;;;;;;18.74;100.00;96028.44;1022683;28;20051;-72
2022/07/15 00:21:11;;;;;;;4.95;2.20;;;;;;;18.75;100.00;96035.34;1026244;28;20617;-73
2022/07/15 00:21:41;;;;;;;5.32;2.30;;;;;;;18.76;100.00;96034.25;1033388;28;20050;-70
2022/07/15 00:22:11;;;;;;;9.18;2.72;;;;;;;18.74;100.00;96033.78;1034431;28;20034;-73
2022/07/15 00:22:42;;;;;;;6.38;2.53;;;;;;;18.73;100.00;96037.53;1035497;28;20679;-71
2022/07/15 00:23:13;;;;;;;4.40;2.63;;;;;;;18.73;100.00;96032.22;1036216;28;20089;-72
2022/07/15 00:23:43;;;;;;;5.47;2.47;;;;;;;18.72;100.00;96035.97;1029833;28;20094;-71
2022/07/15 00:24:13;;;;;;;3.78;2.28;;;;;;;18.71;100.00;96037.00;1026361;28;20034;-72
2022/07/15 00:24:44;;;;;;;4.65;2.28;;;;;;;18.68;100.00;96041.09;1030561;28;20454;-72
2022/07/15 00:25:18;;;;;;;4.13;2.45;;;;;;;18.66;100.00;96037.94;1034683;28;20030;-73
2022/07/15 00:25:49;;;;;;;6.70;2.42;;;;;;;18.63;100.00;96038.56;1039222;28;20048;-71
2022/07/15 00:26:20;;;;;;;11.02;3.20;;;;;;;18.62;100.00;96037.00;1042588;28;20025;-72
2022/07/15 00:26:50;;;;;;;6.15;2.90;;;;;;;18.56;100.00;96027.56;1039207;28;20117;-70
2022/07/15 00:27:21;;;;;;;5.47;2.15;;;;;;;18.61;100.00;96041.53;1035187;28;20038;-74
2022/07/15 00:27:56;;;;;;;4.43;2.50;;;;;;;18.63;100.00;96043.09;1038367;28;20025;-71
2022/07/15 00:28:28;;;;;;;3.95;2.65;;;;;;;18.65;100.00;96041.69;1036917;28;20440;-73
2022/07/15 00:28:58;;;;;;;3.15;2.28;;;;;;;18.65;100.00;96041.69;1039683;28;20396;-72
2022/07/15 00:29:29;;;;;;;4.78;2.15;;;;;;;18.64;100.00;96034.00;1037289;28;20029;-72
2022/07/15 00:30:00;;;;;;;4.50;2.40;;;;;;;18.64;100.00;96044.66;1034838;28;20068;-72
2022/07/15 00:30:31;;;;;;;5.00;2.45;;;;;;;18.63;100.00;96043.09;1030649;28;20038;-72
2022/07/15 00:31:02;;;;;;;7.47;2.65;;;;;;;18.65;100.00;96035.59;1030896;28;20469;-71
2022/07/15 00:31:32;;;;;;;9.38;2.55;;;;;;;18.65;100.00;96039.03;1029630;28;20042;-72
2022/07/15 00:32:03;;;;;;;3.97;2.25;;;;;;;18.66;100.00;96037.94;1026818;28;20035;-71
2022/07/15 00:32:34;;;;;;;4.07;2.20;;;;;;;18.59;100.00;96033.06;1030504;28;20034;-70
2022/07/15 00:33:04;;;;;;;7.13;2.60;;;;;;;18.64;100.00;96039.34;1030497;28;20041;-71
2022/07/15 00:33:35;;;;;;;3.80;2.50;;;;;;;18.64;100.00;96039.34;1024474;28;20015;-75
2022/07/15 00:34:05;;;;;;;5.45;2.60;;;;;;;18.62;100.00;96037.00;1026790;28;20471;-72
2022/07/15 00:34:36;;;;;;;5.55;2.92;;;;;;;18.63;100.00;96038.56;1026473;28;20093;-72
2022/07/15 00:35:07;;;;;;;2.90;2.50;;;;;;;18.64;100.00;96039.34;1026710;28;20023;-71
2022/07/15 00:35:40;;;;;;;6.18;2.63;;;;;;;18.65;100.00;96041.69;1034608;28;20054;-72
2022/07/15 00:36:11;;;;;;;6.38;2.72;;;;;;;18.65;100.00;96040.91;1026516;28;20015;-74
2022/07/15 00:36:41;;;;;;;5.00;2.38;;;;;;;18.64;100.00;96039.34;1026017;28;20450;-71
2022/07/15 00:37:12;;;;;;;2.17;2.03;;;;;;;18.56;100.00;96028.34;1022599;29;20015;-73
2022/07/15 00:37:42;;;;;;;8.05;2.55;;;;;;;18.62;100.00;96042.31;1030425;28;20163;-72
2022/07/15 00:38:12;;;;;;;5.18;2.70;;;;;;;18.62;100.00;96039.66;1030704;28;20402;-72
2022/07/15 00:38:43;;;;;;;5.80;2.63;;;;;;;18.64;100.00;96039.34;1034257;28;20097;-73
2022/07/15 00:39:14;;;;;;;6.10;2.70;;;;;;;18.64;100.00;96036.66;1030606;28;20062;-71
2022/07/15 00:39:45;;;;;;;5.05;2.45;;;;;;;18.61;100.00;96036.22;1034687;28;20060;-70
2022/07/15 00:40:15;;;;;;;4.13;2.53;;;;;;;18.55;100.00;96037.44;1033079;28;20018;-73
2022/07/15 00:40:47;;;;;;;5.53;2.38;;;;;;;18.60;100.00;96045.25;1022429;28;20070;-72
2022/07/15 00:41:17;;;;;;;3.60;2.60;;;;;;;18.59;100.00;96043.69;1026187;28;20403;-73
2022/07/15 00:41:48;;;;;;;3.63;2.50;;;;;;;18.56;100.00;96049.63;1030428;28;20022;-71
2022/07/15 00:43:07;;;;;;;4.03;2.42;;;;;;;18.59;100.00;96050.88;1022411;29;20529;-72
2022/07/15 00:43:39;;;;;;;4.25;2.70;;;;;;;18.56;100.00;96049.63;1028374;28;20027;-74
2022/07/15 00:44:10;;;;;;;7.25;2.70;;;;;;;18.59;100.00;96050.88;1036027;28;20026;-73
2022/07/15 00:44:41;;;;;;;4.53;2.72;;;;;;;18.58;100.00;96042.13;1033066;28;20532;-72
2022/07/15 00:45:16;;;;;;;2.42;1.92;;;;;;;18.52;100.00;96043.34;1034358;28;20017;-71
2022/07/15 00:45:46;;;;;;;9.20;2.70;;;;;;;18.57;100.00;96047.75;1031189;28;20022;-74
2022/07/15 00:46:18;;;;;;;2.88;2.30;;;;;;;18.50;100.00;96039.44;1036083;28;20496;-73
2022/07/15 00:46:48;;;;;;;5.90;2.47;;;;;;;18.53;100.00;96038.81;1034559;28;20802;-75
2022/07/15 00:47:19;;;;;;;3.53;2.60;;;;;;;18.51;100.00;96041.78;1030634;28;20021;-71
2022/07/15 00:47:51;;;;;;;5.55;2.63;;;;;;;18.49;100.00;96038.66;1034568;28;20033;-72
2022/07/15 00:48:22;;;;;;;3.97;2.58;;;;;;;18.47;100.00;96032.84;1035233;28;20033;-71
2022/07/15 00:48:52;;;;;;;5.80;2.47;;;;;;;18.47;100.00;96040.03;1042870;28;20013;-72
2022/07/15 00:49:23;;;;;;;3.53;2.40;;;;;;;18.46;100.00;96033.94;1042647;28;20028;-74
2022/07/15 00:49:53;;;;;;;2.80;2.17;;;;;;;18.46;100.00;96025.97;1042623;28;20017;-72
2022/07/15 00:50:26;;;;;;;5.00;2.45;;;;;;;18.46;100.00;96028.63;1036115;28;20703;-73
2022/07/15 00:50:56;;;;;;;7.32;2.20;;;;;;;18.42;100.00;96027.69;1026395;28;20030;-74
2022/07/15 00:51:27;;;;;;;4.93;2.33;;;;;;;18.38;100.00;96027.50;1021913;29;20027;-74
2022/07/15 00:51:57;;;;;;;6.18;2.50;;;;;;;18.33;100.00;96026.84;1022734;28;20024;-73
2022/07/15 00:52:28;;;;;;;4.15;2.30;;;;;;;18.35;100.00;96022.00;1022471;28;20011;-73
2022/07/15 00:53:12;;;;;;;5.20;2.80;;;;;;;18.26;100.00;96018.53;1022463;28;20016;-74
2022/07/15 00:53:42;;;;;;;6.80;2.60;;;;;;;18.26;100.00;96018.53;1023070;28;20554;-72
2022/07/15 00:54:14;;;;;;;3.92;2.65;;;;;;;18.31;100.00;96031.69;1014565;29;20024;-70
2022/07/15 00:54:45;;;;;;;3.30;2.10;;;;;;;18.28;100.00;96026.97;1018433;29;20399;-73
2022/07/15 00:55:15;;;;;;;4.18;2.50;;;;;;;18.25;100.00;96028.38;1026275;28;20050;-71
2022/07/15 00:55:46;;;;;;;4.35;2.90;;;;;;;18.28;100.00;96040.25;1025817;28;20023;-72
2022/07/15 00:56:19;;;;;;;4.65;2.40;;;;;;;18.26;100.00;96029.94;1030226;28;20517;-72
2022/07/15 00:56:59;;;;;;;4.07;2.20;;;;;;;18.28;100.00;96042.91;1030293;28;20018;-72
2022/07/15 00:57:30;;;;;;;;;;;;;;;18.27;100.00;96036.03;1030489;28;20771;-73
2022/07/15 00:58:02;;;;;;;6.53;2.85;;;;;;;18.23;100.00;96035.84;1028091;28;19949;-72
2022/07/15 00:58:34;;;;;;;4.72;2.20;;;;;;;18.22;100.00;96036.16;1026347;28;20023;-74
2022/07/15 00:59:05;;;;;;;6.13;2.45;;;;;;;18.21;100.00;96031.91;1021859;28;20502;-72
2022/07/15 00:59:36;;;;;;;3.55;2.10;;;;;;;18.20;100.00;96036.44;1034135;28;20041;-72
2022/07/15 01:00:08;;;;;;;5.47;2.28;;;;;;;18.18;100.00;96037.88;1030474;28;20053;-74
2022/07/15 01:00:39;;;;;;;4.65;2.25;;;;;;;18.21;100.00;96042.53;1029675;28;20878;-73
2022/07/15 01:01:10;;;;;;;3.55;2.00;;;;;;;18.21;100.00;96042.53;1026049;28;20066;-72
2022/07/15 01:01:41;;;;;;;6.38;2.60;;;;;;;18.19;100.00;96045.50;1030541;28;20027;-73
2022/07/15 01:02:12;;;;;;;4.18;2.22;;;;;;;18.17;100.00;96042.38;1029614;28;20026;-72
2022/07/15 01:02:49;;;;;;;4.35;2.47;;;;;;;18.20;100.00;96036.44;1022419;29;20098;-74
2022/07/15 01:03:20;;;;;;;5.20;2.55;;;;;;;18.18;100.00;96045.84;1026339;28;20034;-73
2022/07/15 01:03:50;;;;;;;5.95;2.72;;;;;;;18.15;100.00;96039.25;1030081;28;20057;-73
2022/07/15 01:04:21;;;;;;;5.72;2.45;;;;;;;18.16;100.00;96034.72;1030411;28;20030;-75
2022/07/15 01:04:51;;;;;;;5.97;2.28;;;;;;;18.17;100.00;96036.28;1030425;28;20072;-72
2022/07/15 01:05:22;;;;;;;5.90;2.67;;;;;;;18.18;100.00;96040.53;1034517;28;20033;-72
2022/07/15 01:05:52;;;;;;;8.40;2.75;;;;;;;18.18;100.00;96038.63;1031213;28;20053;-71
2022/07/15 01:06:26;;;;;;;6.10;2.25;;;;;;;18.18;100.00;96037.88;1026124;28;20019;-74
2022/07/15 01:06:56;;;;;;;6.28;2.00;;;;;;;18.19;100.00;96039.44;1026413;28;20071;-74
2022/07/15 01:07:27;;;;;;;5.90;2.28;;;;;;;18.16;100.00;96040.03;1030195;28;20433;-74
2022/07/15 01:07:58;;;;;;;3.50;2.10;;;;;;;18.16;100.00;96038.16;1026252;28;20086;-73
2022/07/15 01:08:28;;;;;;;4.00;2.15;;;;;;;18.14;100.00;96046.44;1030344;28;20890;-72
2022/07/15 01:08:59;;;;;;;11.00;2.70;;;;;;;18.08;100.00;96033.59;1026953;28;20129;-75
2022/07/15 01:09:29;;;;;;;7.90;2.65;;;;;;;18.10;100.00;96045.44;1034325;28;20041;-73
2022/07/15 01:10:00;;;;;;;6.32;2.40;;;;;;;18.07;100.00;96047.94;1030400;28;20088;-73
2022/07/15 01:10:30;;;;;;;5.32;2.53;;;;;;;18.07;100.00;96045.28;1032015;28;20044;-73
2022/07/15 01:11:01;;;;;;;5.32;2.30;;;;;;;18.09;100.00;96045.75;1030269;28;20033;-73
2022/07/15 01:11:31;;;;;;;3.15;2.00;;;;;;;18.07;100.00;96042.63;1037128;28;20075;-73
2022/07/15 01:12:02;;;;;;;4.60;2.15;;;;;;;18.07;100.00;96043.41;1042403;28;20025;-73
2022/07/15 01:12:33;;;;;;;6.70;2.25;;;;;;;18.01;100.00;96034.00;1037436;28;20025;-72
2022/07/15 01:13:04;;;;;;;3.97;2.40;;;;;;;17.98;100.00;96025.88;1034254;28;20025;-73
2022/07/15 01:13:34;;;;;;;5.50;2.35;;;;;;;17.98;100.00;96039.13;1030202;28;20037;-72
2022/07/15 01:14:05;;;;;;;3.58;2.15;;;;;;;17.98;100.00;96034.59;1026355;28;20390;-73
2022/07/15 01:14:36;;;;;;;3.25;2.40;;;;;;;18.01;100.00;96039.31;1026312;28;20039;-76
2022/07/15 01:15:07;;;;;;;6.28;2.70;;;;;;;18.00;100.00;96043.03;1026347;28;20545;-72
2022/07/15 01:15:38;;;;;;;4.18;2.33;;;;;;;17.98;100.00;96041.78;1026575;28;20497;-74
2022/07/15 01:16:08;;;;;;;3.38;2.20;;;;;;;17.92;100.00;96035.03;1030289;28;20027;-74
2022/07/15 01:16:39;;;;;;;5.97;2.50;;;;;;;17.86;100.00;96032.47;1030592;28;20033;-72
2022/07/15 01:17:10;;;;;;;2.95;2.30;;;;;;;17.93;100.00;96042.69;1030291;28;20029;-72
2022/07/15 01:17:41;;;;;;;5.03;2.20;;;;;;;17.94;100.00;96048.78;1026441;28;20413;-72
2022/07/15 01:18:11;;;;;;;8.05;2.55;;;;;;;17.94;100.00;96046.13;1022178;28;20032;-73
2022/07/15 01:18:42;;;;;;;5.32;2.83;;;;;;;17.92;100.00;96046.44;1026763;28;20517;-71
2022/07/15 01:19:12;;;;;;;4.60;1.92;;;;;;;17.84;100.00;96033.84;1030069;28;20069;-71
2022/07/15 01:19:43;;;;;;;8.23;2.30;;;;;;;17.88;100.00;96040.16;1030389;28;20303;-72
2022/07/15 01:20:14;;;;;;;6.35;2.30;;;;;;;17.85;100.00;96035.44;1038031;28;20068;-75
2022/07/15 01:20:47;;;;;;;2.97;2.10;;;;;;;17.78;100.00;96035.88;1026377;28;20026;-73
2022/07/15 01:21:18;;;;;;;5.35;2.80;;;;;;;17.86;100.00;96044.97;1030303;28;20455;-75
2022/07/15 01:21:49;;;;;;;7.85;2.53;;;;;;;17.85;100.00;96043.41;1033311;28;20030;-73
2022/07/15 01:22:19;;;;;;;5.80;2.03;;;;;;;17.86;100.00;96047.63;1027145;28;20039;-73
2022/07/15 01:22:50;;;;;;;3.88;1.92;;;;;;;17.83;100.00;96043.69;1030797;28;20515;-73
2022/07/15 01:23:20;;;;;;;4.57;2.10;;;;;;;17.85;100.00;96043.41;1034084;28;20077;-72
2022/07/15 01:23:51;;;;;;;7.32;2.50;;;;;;;17.83;100.00;96040.25;1034330;28;20033;-72
2022/07/15 01:24:21;;;;;;;5.90;2.28;;;;;;;17.80;100.00;96039.00;1038225;28;20570;-73
2022/07/15 01:24:52;;;;;;;3.55;1.98;;;;;;;17.78;100.00;96035.09;1035474;28;20033;-73
2022/07/15 01:25:22;;;;;;;4.75;2.53;;;;;;;17.74;100.00;96040.19;1034423;28;20160;-73
2022/07/15 01:25:53;;;;;;;5.82;2.08;;;;;;;17.76;100.00;96040.69;1026161;28;20030;-72
2022/07/15 01:26:24;;;;;;;5.00;2.08;;;;;;;17.77;100.00;96039.63;1026450;28;20038;-73
2022/07/15 01:26:54;;;;;;;3.10;1.85;;;;;;;17.81;100.00;96039.81;1026280;28;20577;-72
2022/07/15 01:27:25;;;;;;;5.95;2.25;;;;;;;17.80;100.00;96044.28;1030547;28;20034;-75
2022/07/15 01:27:56;;;;;;;5.30;2.40;;;;;;;17.81;100.00;96047.75;1034285;28;20579;-73
2022/07/15 01:28:26;;;;;;;2.58;1.92;;;;;;;17.82;100.00;96046.66;1027272;28;20089;-74
2022/07/15 01:28:57;;;;;;;4.05;2.20;;;;;;;17.79;100.00;96041.97;1022191;29;20125;-72
2022/07/15 01:29:28;;;;;;;7.22;2.53;;;;;;;17.74;100.00;96042.03;1017477;28;20038;-73
2022/07/15 01:29:59;;;;;;;4.43;2.42;;;;;;;17.73;100.00;96045.78;1023616;28;20030;-73
2022/07/15 01:30:30;;;;;;;3.47;2.20;;;;;;;17.77;100.00;96046.78;1020620;29;20438;-74
2022/07/15 01:31:00;;;;;;;5.30;2.17;;;;;;;17.78;100.00;96046.50;1022176;29;20031;-73
2022/07/15 01:31:31;;;;;;;5.57;2.35;;;;;;;17.80;100.00;96049.59;1021610;28;20035;-75
2022/07/15 01:32:01;;;;;;;4.25;2.00;;;;;;;17.81;100.00;96050.41;1022286;28;20015;-71
2022/07/15 01:32:32;;;;;;;3.72;2.00;;;;;;;17.80;100.00;96046.16;1022410;28;20082;-73
2022/07/15 01:33:03;;;;;;;3.35;2.03;;;;;;;17.71;100.00;96029.38;1030044;28;20026;-72
2022/07/15 01:33:33;;;;;;;7.43;2.13;;;;;;;17.51;100.00;96014.72;1022236;28;20027;-71
2022/07/15 01:34:04;;;;;;;11.43;2.45;;;;;;;17.68;100.00;96033.41;1022363;29;20722;-73
2022/07/15 01:34:34;;;;;;;5.07;2.47;;;;;;;17.67;100.00;96042.44;1018277;29;20038;-73
2022/07/15 01:35:05;;;;;;;7.53;2.10;;;;;;;17.65;100.00;96047.28;1019470;29;20027;-73
2022/07/15 01:35:36;;;;;;;6.72;2.58;;;;;;;17.68;100.00;96041.38;1022220;29;20020;-73
2022/07/15 01:36:07;;;;;;;5.95;2.40;;;;;;;17.66;100.00;96049.63;1022263;29;20705;-73
2022/07/15 01:36:37;;;;;;;6.00;2.40;;;;;;;17.60;100.00;96040.22;1026207;28;20039;-74
2022/07/15 01:37:10;;;;;;;6.97;2.20;;;;;;;17.60;100.00;96028.81;1022202;28;20042;-72
2022/07/15 01:37:41;;;;;;;6.07;2.38;;;;;;;17.61;100.00;96033.84;1022630;28;20071;-72
2022/07/15 01:38:11;;;;;;;3.90;2.20;;;;;;;17.65;100.00;96047.28;1022356;29;20031;-72
2022/07/15 01:38:42;;;;;;;6.18;2.35;;;;;;;17.63;100.00;96044.91;1032835;28;20029;-74
2022/07/15 01:39:12;;;;;;;4.00;2.20;;;;;;;17.60;100.00;96036.78;1038645;28;20030;-71
2022/07/15 01:39:43;;;;;;;6.90;2.08;;;;;;;17.55;100.00;96040.34;1042500;28;20052;-74
2022/07/15 01:40:13;;;;;;;3.10;2.15;;;;;;;17.54;100.00;96043.28;1038340;28;20591;-71
2022/07/15 01:40:44;;;;;;;5.65;2.10;;;;;;;17.53;100.00;96044.38;1038380;28;20702;-72
2022/07/15 01:41:15;;;;;;;4.47;2.40;;;;;;;17.51;100.00;96042.03;1029509;28;20045;-72
2022/07/15 01:41:46;;;;;;;4.47;2.40;;;;;;;17.47;100.00;96035.75;1022241;28;20513;-73
2022/07/15 01:42:16;;;;;;;3.60;2.30;;;;;;;17.44;100.00;96047.75;1026216;28;20023;-72
2022/07/15 01:42:47;;;;;;;7.18;2.30;;;;;;;17.44;100.00;96044.31;1026666;28;20398;-75
2022/07/15 01:43:17;;;;;;;3.33;2.30;;;;;;;17.45;100.00;96048.53;1038425;28;20029;-70
2022/07/15 01:43:48;;;;;;;6.38;2.15;;;;;;;17.42;100.00;96051.75;1046515;28;20028;-72
2022/07/15 01:44:18;;;;;;;6.78;2.30;;;;;;;17.38;100.00;96045.50;1042608;28;20786;-75
2022/07/15 01:44:49;;;;;;;8.25;2.33;;;;;;;17.34;100.00;96037.34;1042450;28;20032;-72
2022/07/15 01:45:19;;;;;;;4.80;2.25;;;;;;;17.38;100.00;96040.97;1042169;28;20040;-72
2022/07/15 01:45:50;;;;;;;4.47;2.10;;;;;;;17.36;100.00;96040.47;1034264;28;20105;-72
2022/07/15 01:46:20;;;;;;;5.95;2.50;;;;;;;17.40;100.00;96048.63;1034218;28;20127;-73
2022/07/15 01:46:50;;;;;;;3.45;2.03;;;;;;;17.40;100.00;96046.78;1029876;28;20062;-72
2022/07/15 01:47:21;;;;;;;9.70;2.88;;;;;;;17.43;100.00;96048.03;1030295;28;20054;-73
2022/07/15 01:47:52;;;;;;;3.60;1.85;;;;;;;17.37;100.00;96035.94;1034274;28;20040;-72
2022/07/15 01:49:31;;;;;;;3.92;1.90;;;;;;;17.42;100.00;96041.94;1026172;28;20106;-72
2022/07/15 01:50:02;;;;;;;6.22;2.25;;;;;;;17.47;100.00;96040.25;1032299;28;20098;-71
2022/07/15 01:50:32;;;;;;;4.47;2.20;;;;;;;17.49;100.00;96048.72;1033442;28;20979;-74
2022/07/15 01:51:02;;;;;;;2.72;2.17;;;;;;;17.48;100.00;96041.84;1029910;28;20034;-76
2022/07/15 01:51:33;;;;;;;4.70;2.10;;;;;;;17.45;100.00;96040.56;1017841;29;20557;-72
2022/07/15 01:52:04;;;;;;;5.15;2.13;;;;;;;17.39;100.00;96039.09;1020537;28;20031;-72
2022/07/15 01:52:34;;;;;;;2.97;2.15;;;;;;;17.42;100.00;96043.81;1026199;28;20069;-73
2022/07/15 01:53:05;;;;;;;3.88;2.30;;;;;;;17.40;100.00;96045.97;1026553;28;20026;-76
2022/07/15 01:53:36;;;;;;;4.43;2.30;;;;;;;17.38;100.00;96038.31;1035841;28;20069;-74
2022/07/15 01:54:06;;;;;;;6.10;2.33;;;;;;;17.18;100.00;96007.69;1030292;28;20021;-73
2022/07/15 01:54:37;;;;;;;4.82;2.00;;;;;;;17.35;100.00;96038.91;1030410;28;20030;-72
2022/07/15 01:55:08;;;;;;;3.88;2.42;;;;;;;17.39;100.00;96041.75;1026256;28;20147;-73
2022/07/15 01:55:38;;;;;;;2.80;2.38;;;;;;;17.38;100.00;96043.63;1024515;28;20031;-72
2022/07/15 01:56:09;;;;;;;3.55;2.22;;;;;;;17.31;100.00;96043.25;1025947;28;20097;-72
2022/07/15 01:56:39;;;;;;;4.47;2.25;;;;;;;17.30;100.00;96043.53;1022422;28;20071;-74
2022/07/15 01:57:10;;;;;;;7.70;2.20;;;;;;;17.30;100.00;96046.97;1028543;28;20034;-72
2022/07/15 01:57:40;;;;;;;12.35;2.72;;;;;;;17.26;100.00;96037.25;1042380;28;20032;-73
2022/07/15 01:58:11;;;;;;;20.75;4.50;;;;;;;17.24;100.00;96047.38;1030054;28;20030;-74
2022/07/15 01:58:42;;;;;;;11.35;2.55;;;;;;;17.20;100.00;96050.63;1034317;28;20033;-72
2022/07/15 01:59:12;;;;;;;17.67;3.33;;;;;;;17.15;100.00;96042.78;1030077;28;20088;-72
2022/07/15 01:59:43;;;;;;;2.72;2.20;;;;;;;17.18;100.00;96052.78;1030428;28;20026;-74
2022/07/15 02:00:16;;;;;;;7.55;2.40;;;;;;;17.12;100.00;96040.72;1034424;28;20030;-72
2022/07/15 02:00:46;;;;;;;5.75;2.45;;;;;;;17.17;100.00;96047.78;1029972;28;20560;-72
2022/07/15 02:01:18;;;;;;;7.70;2.65;;;;;;;17.15;100.00;96045.41;1021635;29;20034;-73
2022/07/15 02:01:48;;;;;;;7.93;2.35;;;;;;;17.16;100.00;96052.28;1022832;28;20529;-72
2022/07/15 02:02:19;;;;;;;4.32;2.08;;;;;;;17.10;100.00;96037.59;1024178;28;20038;-72
2022/07/15 02:02:49;;;;;;;5.20;2.30;;;;;;;17.13;100.00;96052.88;1026358;28;20747;-71
2022/07/15 02:03:22;;;;;;;4.18;2.20;;;;;;;17.10;100.00;96042.06;1022101;29;20039;-72
2022/07/15 02:03:53;;;;;;;7.47;2.33;;;;;;;17.15;100.00;96055.25;1026340;28;20634;-73
2022/07/15 02:04:23;;;;;;;3.05;2.22;;;;;;;17.18;100.00;96055.44;1026473;28;20093;-72
2022/07/15 02:04:56;;;;;;;5.90;2.20;;;;;;;17.18;100.00;96058.09;1026132;28;20038;-72
2022/07/15 02:05:27;;;;;;;3.75;1.90;;;;;;;17.18;100.00;96055.44;1030127;28;20042;-72
2022/07/15 02:05:58;;;;;;;4.55;2.05;;;;;;;17.20;100.00;96047.16;1026383;28;20039;-72
2022/07/15 02:06:29;;;;;;;4.55;1.98;;;;;;;17.21;100.00;96048.75;1031243;28;20429;-74
2022/07/15 02:07:00;;;;;;;3.65;1.88;;;;;;;17.20;100.00;96053.28;1038537;28;20112;-72
2022/07/15 02:07:30;;;;;;;7.32;2.55;;;;;;;17.22;100.00;96050.31;1042253;28;20032;-72
2022/07/15 02:08:01;;;;;;;5.15;2.28;;;;;;;17.22;100.00;96047.66;1038236;28;20032;-76
2022/07/15 02:08:31;;;;;;;2.80;1.90;;;;;;;17.24;100.00;96047.38;1038369;28;20069;-71
2022/07/15 02:09:02;;;;;;;6.53;2.40;;;;;;;17.23;100.00;96040.50;1042227;28;20492;-73
2022/07/15 02:09:33;;;;;;;3.75;2.17;;;;;;;17.26;100.00;96046.00;1037105;28;20037;-74
2022/07/15 02:10:04;;;;;;;5.32;2.75;;;;;;;17.27;100.00;96039.63;1038181;28;20029;-71
2022/07/15 02:10:40;;;;;;;6.60;2.00;;;;;;;17.27;100.00;96044.94;1037012;28;20084;-71
2022/07/15 02:11:11;;;;;;;3.30;1.90;;;;;;;17.28;100.00;96045.72;1032787;28;20519;-73
2022/07/15 02:11:41;;;;;;;3.85;2.10;;;;;;;17.25;100.00;96033.03;1025803;28;20066;-74
2022/07/15 02:12:12;;;;;;;5.85;2.20;;;;;;;17.25;100.00;96033.03;1017951;29;20036;-70
2022/07/15 02:12:43;;;;;;;4.03;2.08;;;;;;;17.23;100.00;96032.53;1018379;28;20447;-71
2022/07/15 02:13:13;;;;;;;5.35;2.15;;;;;;;17.20;100.00;96037.38;1028153;28;20072;-72
2022/07/15 02:13:44;;;;;;;4.65;2.10;;;;;;;17.13;100.00;96031.66;1022221;28;20098;-73
2022/07/15 02:14:14;;;;;;;4.22;2.17;;;;;;;17.16;100.00;96044.34;1029949;28;20496;-72
2022/07/15 02:14:45;;;;;;;4.38;2.28;;;;;;;17.16;100.00;96039.03;1029871;28;20118;-72
2022/07/15 02:15:15;;;;;;;4.85;2.10;;;;;;;17.11;100.00;96039.16;1026220;28;20182;-73
2022/07/15 02:15:46;;;;;;;3.08;2.00;;;;;;;17.11;100.00;96047.09;1034341;28;20030;-72
2022/07/15 02:16:16;;;;;;;6.22;1.90;;;;;;;17.08;100.00;96050.34;1037500;28;20025;-72
2022/07/15 02:16:47;;;;;;;4.65;2.00;;;;;;;17.07;100.00;96058.56;1029981;28;20083;-73
2022/07/15 02:17:17;;;;;;;5.90;1.92;;;;;;;17.06;100.00;96046.41;1026231;28;20738;-73
2022/07/15 02:17:48;;;;;;;5.47;1.90;;;;;;;17.03;100.00;96053.06;1030215;28;20074;-71
2022/07/15 02:18:18;;;;;;;5.32;1.80;;;;;;;17.00;100.00;96040.44;1033275;28;20796;-71
2022/07/15 02:18:49;;;;;;;6.55;1.95;;;;;;;16.96;100.00;96040.22;1034012;28;20109;-72
2022/07/15 02:19:19;;;;;;;6.45;1.67;;;;;;;17.00;100.00;96037.78;1034082;28;20504;-72
2022/07/15 02:19:50;;;;;;;5.63;2.28;;;;;;;17.00;100.00;96045.75;1030016;28;20026;-72
2022/07/15 02:20:20;;;;;;;5.25;2.10;;;;;;;16.94;100.00;96038.97;1034121;28;20116;-72
2022/07/15 02:20:50;;;;;;;3.90;2.22;;;;;;;16.93;100.00;96037.38;1031202;28;20018;-73
2022/07/15 02:21:21;;;;;;;4.75;2.33;;;;;;;16.94;100.00;96033.66;1029503;28;20026;-72
2022/07/15 02:21:51;;;;;;;4.53;1.67;;;;;;;16.88;100.00;96040.94;1030026;28;20014;-72
2022/07/15 02:22:22;;;;;;;3.35;1.60;;;;;;;16.89;100.00;96047.00;1026013;28;20042;-72
2022/07/15 02:22:52;;;;;;;4.50;1.80;;;;;;;16.88;100.00;96034.84;1023082;28;20027;-72
2022/07/15 02:23:23;;;;;;;3.60;2.00;;;;;;;16.85;100.00;96046.03;1029988;28;20082;-72
2022/07/15 02:23:54;;;;;;;7.28;2.47;;;;;;;16.86;100.00;96042.28;1030331;28;20054;-73
2022/07/15 02:24:24;;;;;;;3.28;2.03;;;;;;;16.84;100.00;96044.47;1033860;28;20026;-71
2022/07/15 02:24:55;;;;;;;3.80;1.90;;;;;;;16.84;100.00;96044.47;1031419;28;20015;-72
2022/07/15 02:25:26;;;;;;;7.57;2.17;;;;;;;16.83;100.00;96045.53;1034371;28;20080;-73
2022/07/15 02:25:56;;;;;;;3.03;1.88;;;;;;;16.78;100.00;96040.34;1030099;28;20022;-72
2022/07/15 02:26:27;;;;;;;6.13;1.85;;;;;;;16.78;100.00;96050.94;1029987;28;20054;-73